createdAt,value
2019-05-22T00:02:29.798Z,33.70
2019-05-22T00:05:11.286Z,33.90
2019-05-22T00:07:43.363Z,34.70
2019-05-22T00:10:19.243Z,33.37
2019-05-22T00:12:51.862Z,33.63
2019-05-22T00:15:24.209Z,33.17
2019-05-22T00:17:54.733Z,34.93
2019-05-22T00:20:27.110Z,33.10
2019-05-22T00:22:57.097Z,34.20
2019-05-22T00:25:29.012Z,33.47
2019-05-22T00:28:00.116Z,34.23
2019-05-22T00:30:31.621Z,35.03
2019-05-22T00:33:02.227Z,34.27
2019-05-22T00:35:32.120Z,35.57
2019-05-22T00:38:04.757Z,35.27
2019-05-22T00:40:36.151Z,35.20
2019-05-22T00:43:13.825Z,33.33
2019-05-22T00:45:39.540Z,33.27
2019-05-22T00:48:09.041Z,34.17
2019-05-22T00:50:44.770Z,34.17
2019-05-22T00:53:33.535Z,36.80
2019-05-22T00:56:11.556Z,35.50
2019-05-22T00:58:47.347Z,35.30
2019-05-22T01:01:32.533Z,34.83
2019-05-22T01:04:05.746Z,35.67
2019-05-22T01:06:36.423Z,36.80
2019-05-22T01:09:08.746Z,37.93
2019-05-22T01:11:39.536Z,40.93
2019-05-22T01:14:10.028Z,38.77
2019-05-22T01:16:42.271Z,40.70
2019-05-22T01:19:11.778Z,39.00
2019-05-22T01:21:41.332Z,39.53
2019-05-22T01:24:12.477Z,41.03
2019-05-22T01:26:43.783Z,41.60
2019-05-22T01:29:13.772Z,41.10
2019-05-22T01:31:48.781Z,40.90
2019-05-22T01:34:23.063Z,41.07
2019-05-22T01:36:57.344Z,40.43
2019-05-22T01:39:58.775Z,38.90
2019-05-22T01:42:35.115Z,39.03
2019-05-22T01:45:07.341Z,39.17
2019-05-22T01:48:08.878Z,39.33
2019-05-22T01:50:53.873Z,38.93
2019-05-22T01:53:27.226Z,35.70
2019-05-22T01:55:59.135Z,36.13
2019-05-22T01:58:31.227Z,37.13
2019-05-22T02:01:03.314Z,38.37
2019-05-22T02:03:34.283Z,37.37
2019-05-22T02:06:05.625Z,37.07
2019-05-22T02:08:38.343Z,35.80
2019-05-22T02:11:10.468Z,36.53
2019-05-22T02:13:43.976Z,39.33
2019-05-22T02:16:14.669Z,39.57
2019-05-22T02:18:46.121Z,37.73
2019-05-22T02:21:16.673Z,38.53
2019-05-22T02:23:48.539Z,35.97
2019-05-22T02:26:19.732Z,36.40
2019-05-22T02:28:50.861Z,38.13
2019-05-22T02:31:25.923Z,37.73
2019-05-22T02:34:03.831Z,36.80
2019-05-22T02:36:37.411Z,36.07
2019-05-22T02:39:15.658Z,35.23
2019-05-22T02:41:50.283Z,35.57
2019-05-22T02:44:20.952Z,33.43
2019-05-22T02:46:50.907Z,35.60
2019-05-22T02:49:20.915Z,35.00
2019-05-22T02:51:50.459Z,33.40
2019-05-22T02:54:20.170Z,35.07
2019-05-22T02:56:49.675Z,33.97
2019-05-22T02:59:18.901Z,34.13
2019-05-22T03:01:48.116Z,34.50
2019-05-22T03:04:19.747Z,33.57
2019-05-22T03:06:50.282Z,32.57
2019-05-22T03:09:24.497Z,33.27
2019-05-22T03:12:16.130Z,33.20
2019-05-22T03:14:45.395Z,32.80
2019-05-22T03:17:27.672Z,33.90
2019-05-22T03:19:59.854Z,31.60
2019-05-22T03:22:34.579Z,32.47
2019-05-22T03:25:09.889Z,31.20
2019-05-22T03:27:44.003Z,32.83
2019-05-22T03:30:34.662Z,34.30
2019-05-22T03:33:05.960Z,34.90
2019-05-22T03:35:46.285Z,33.90
2019-05-22T03:38:17.788Z,34.67
2019-05-22T03:40:48.770Z,33.43
2019-05-22T03:43:22.478Z,33.43
2019-05-22T03:45:54.374Z,33.77
2019-05-22T03:48:26.375Z,34.30
2019-05-22T03:51:00.768Z,34.30
2019-05-22T03:53:30.571Z,34.40
2019-05-22T03:56:00.831Z,35.40
2019-05-22T03:58:31.106Z,35.60
2019-05-22T04:01:03.532Z,38.23
2019-05-22T04:03:33.616Z,38.60
2019-05-22T04:06:04.697Z,39.30
2019-05-22T04:08:35.622Z,38.60
2019-05-22T04:11:07.961Z,36.27
2019-05-22T04:13:37.632Z,36.17
2019-05-22T04:16:10.339Z,35.70
2019-05-22T04:18:40.723Z,34.70
2019-05-22T04:21:10.078Z,37.87
2019-05-22T04:23:39.338Z,37.40
2019-05-22T04:26:12.059Z,38.30
2019-05-22T04:28:51.012Z,36.27
2019-05-22T04:31:31.697Z,35.60
2019-05-22T04:34:01.380Z,36.90
2019-05-22T04:36:30.573Z,37.27
2019-05-22T04:39:02.049Z,37.87
2019-05-22T04:41:31.702Z,37.23
2019-05-22T04:44:01.717Z,37.30
2019-05-22T04:46:31.369Z,39.37
2019-05-22T04:49:01.133Z,40.60
2019-05-22T04:51:31.773Z,41.93
2019-05-22T04:54:01.375Z,40.43
2019-05-22T04:56:31.770Z,40.00
2019-05-22T04:59:02.172Z,39.20
2019-05-22T05:01:32.504Z,39.10
2019-05-22T05:04:02.874Z,40.33
2019-05-22T05:06:35.706Z,41.50
2019-05-22T05:09:08.069Z,40.80
2019-05-22T05:11:38.863Z,40.37
2019-05-22T05:14:08.446Z,39.63
2019-05-22T05:16:38.017Z,36.03
2019-05-22T05:19:07.989Z,35.87
2019-05-22T05:21:38.988Z,37.50
2019-05-22T05:24:09.146Z,36.50
2019-05-22T05:26:38.416Z,39.70
2019-05-22T05:29:25.420Z,37.23
2019-05-22T05:31:55.378Z,37.30
2019-05-22T05:34:35.208Z,35.27
2019-05-22T05:37:07.659Z,36.13
2019-05-22T05:40:24.697Z,37.17
2019-05-22T05:42:54.747Z,37.47
2019-05-22T05:45:24.317Z,37.43
2019-05-22T05:47:53.601Z,36.97
2019-05-22T05:50:38.241Z,38.90
2019-05-22T05:52:56.451Z,35.83
2019-05-22T05:55:27.724Z,31.70
2019-05-22T05:58:26.779Z,32.13
2019-05-22T06:01:07.186Z,32.40
2019-05-22T06:03:40.394Z,32.60
2019-05-22T06:07:00.329Z,29.43
2019-05-22T06:09:30.933Z,33.00
2019-05-22T06:12:05.437Z,33.40
2019-05-22T06:14:35.418Z,33.20
2019-05-22T06:17:58.017Z,33.27
2019-05-22T06:20:28.626Z,34.50
2019-05-22T06:23:45.958Z,34.10
2019-05-22T06:26:29.245Z,32.97
2019-05-22T06:28:59.929Z,32.37
2019-05-22T06:31:42.026Z,35.37
2019-05-22T06:34:12.595Z,35.47
2019-05-22T06:36:43.073Z,36.50
2019-05-22T06:39:15.262Z,38.40
2019-05-22T06:41:46.066Z,40.20
2019-05-22T06:44:52.165Z,41.20
2019-05-22T06:47:21.709Z,40.43
2019-05-22T06:49:54.124Z,41.30
2019-05-22T06:52:24.400Z,40.47
2019-05-22T06:54:55.210Z,39.33
2019-05-22T06:57:31.752Z,39.33
2019-05-22T07:00:14.740Z,40.50
2019-05-22T07:02:35.461Z,39.70
2019-05-22T07:05:07.297Z,38.47
2019-05-22T07:07:37.707Z,37.93
2019-05-22T07:10:10.207Z,37.70
2019-05-22T07:12:40.112Z,38.27
2019-05-22T07:15:31.788Z,35.53
2019-05-22T07:18:03.112Z,36.80
2019-05-22T07:20:35.946Z,38.00
2019-05-22T07:23:09.112Z,38.63
2019-05-22T07:25:40.176Z,38.57
2019-05-22T07:28:10.192Z,37.77
2019-05-22T07:30:40.483Z,40.00
2019-05-22T07:33:10.275Z,39.33
2019-05-22T07:36:04.602Z,38.73
2019-05-22T07:38:10.697Z,41.00
2019-05-22T07:40:40.427Z,43.10
2019-05-22T07:43:09.670Z,42.40
2019-05-22T07:45:40.243Z,42.93
2019-05-22T07:48:11.031Z,40.97
2019-05-22T07:50:47.970Z,42.27
2019-05-22T07:53:17.046Z,41.87
2019-05-22T07:55:47.971Z,42.67
2019-05-22T07:58:18.637Z,40.80
2019-05-22T08:00:55.710Z,41.10
2019-05-22T08:03:26.278Z,40.43
2019-05-22T08:05:57.796Z,38.23
2019-05-22T08:08:29.736Z,39.67
2019-05-22T08:10:59.378Z,40.07
2019-05-22T08:13:30.414Z,39.73
2019-05-22T08:15:59.724Z,38.87
2019-05-22T08:18:32.604Z,38.00
2019-05-22T08:21:01.861Z,40.43
2019-05-22T08:23:31.541Z,39.97
2019-05-22T08:26:01.101Z,36.97
2019-05-22T08:28:33.039Z,36.00
2019-05-22T08:31:04.235Z,38.73
2019-05-22T08:33:35.194Z,35.37
2019-05-22T08:36:05.753Z,35.07
2019-05-22T08:38:36.075Z,36.20
2019-05-22T08:41:08.352Z,31.97
2019-05-22T08:44:03.449Z,30.90
2019-05-22T08:46:11.399Z,29.50
2019-05-22T08:48:47.795Z,29.00
2019-05-22T08:51:16.217Z,27.97
2019-05-22T08:53:47.980Z,28.40
2019-05-22T08:56:17.013Z,27.47
2019-05-22T08:58:47.573Z,27.17
2019-05-22T09:01:17.279Z,24.07
2019-05-22T09:03:48.849Z,24.40
2019-05-22T09:06:18.318Z,24.20
2019-05-22T09:08:48.067Z,24.77
2019-05-22T09:11:17.528Z,23.90
2019-05-22T09:13:47.023Z,25.77
2019-05-22T09:16:16.508Z,23.87
2019-05-22T09:18:46.224Z,21.93
2019-05-22T09:21:16.587Z,22.17
2019-05-22T09:23:46.708Z,21.03
2019-05-22T09:26:17.842Z,22.03
2019-05-22T09:28:47.831Z,23.60
2019-05-22T09:31:19.112Z,20.77
2019-05-22T09:33:49.723Z,18.10
2019-05-22T09:36:19.483Z,17.63
2019-05-22T09:38:52.216Z,19.77
2019-05-22T09:41:20.710Z,16.10
2019-05-22T09:43:50.121Z,18.57
2019-05-22T09:46:20.130Z,19.13
2019-05-22T09:48:49.583Z,19.43
2019-05-22T09:51:19.670Z,18.73
2019-05-22T09:53:50.049Z,18.67
2019-05-22T09:56:19.356Z,15.53
2019-05-22T09:58:48.753Z,13.00
2019-05-22T10:01:17.985Z,13.43
2019-05-22T10:03:47.658Z,13.17
2019-05-22T10:06:17.294Z,12.63
2019-05-22T10:08:46.930Z,13.00
2019-05-22T10:11:16.667Z,13.93
2019-05-22T10:13:46.257Z,14.50
2019-05-22T10:16:15.572Z,16.57
2019-05-22T10:18:45.017Z,17.43
2019-05-22T10:21:14.401Z,16.90
2019-05-22T10:23:44.960Z,19.43
2019-05-22T10:26:14.671Z,18.10
2019-05-22T10:28:43.929Z,15.77
2019-05-22T10:31:16.162Z,18.17
2019-05-22T10:33:44.750Z,16.70
2019-05-22T10:36:14.925Z,17.60
2019-05-22T10:38:44.492Z,16.40
2019-05-22T10:41:14.692Z,17.33
2019-05-22T10:43:44.818Z,16.37
2019-05-22T10:46:14.857Z,11.43
2019-05-22T10:48:44.777Z,10.50
2019-05-22T10:51:14.397Z,10.10
2019-05-22T10:53:44.479Z,8.57
2019-05-22T10:56:14.426Z,5.80
2019-05-22T10:58:43.657Z,7.10
2019-05-22T11:01:12.821Z,6.40
2019-05-22T11:03:42.030Z,6.10
2019-05-22T11:06:12.427Z,6.83
2019-05-22T11:08:43.175Z,7.33
2019-05-22T11:11:12.344Z,8.60
2019-05-22T11:13:59.375Z,7.83
2019-05-22T11:16:14.497Z,9.90
2019-05-22T11:18:44.212Z,10.43
2019-05-22T11:21:14.621Z,10.17
2019-05-22T11:23:52.132Z,6.40
2019-05-22T11:26:16.134Z,5.63
2019-05-22T11:28:45.417Z,6.83
2019-05-22T11:31:14.858Z,5.50
2019-05-22T11:33:44.987Z,5.93
2019-05-22T11:36:15.053Z,5.00
2019-05-22T11:38:44.678Z,3.90
2019-05-22T11:41:15.847Z,4.23
2019-05-22T11:43:45.817Z,2.20
2019-05-22T11:46:16.258Z,2.20
2019-05-22T11:48:45.850Z,2.43
2019-05-22T11:51:16.025Z,2.57
2019-05-22T11:53:45.377Z,3.87
2019-05-22T11:56:14.620Z,4.73
2019-05-22T11:58:43.965Z,5.23
2019-05-22T12:01:13.949Z,4.23
2019-05-22T12:03:43.424Z,2.93
2019-05-22T12:06:14.471Z,3.27
2019-05-22T12:08:44.168Z,2.80
2019-05-22T12:11:17.377Z,2.47
2019-05-22T12:13:48.881Z,2.63
2019-05-22T12:16:20.699Z,1.90
2019-05-22T12:18:50.243Z,2.10
2019-05-22T12:21:19.609Z,2.00
2019-05-22T12:23:49.403Z,1.40
2019-05-22T12:26:20.766Z,1.50
2019-05-22T12:28:50.418Z,1.17
2019-05-22T12:31:20.701Z,1.30
2019-05-22T12:33:51.050Z,1.30
2019-05-22T12:36:20.749Z,1.53
2019-05-22T12:38:51.147Z,1.90
2019-05-22T12:41:20.884Z,1.37
2019-05-22T12:43:50.175Z,0.90
2019-05-22T12:46:20.533Z,1.23
2019-05-22T12:48:50.203Z,1.43
2019-05-22T12:51:19.473Z,1.50
2019-05-22T12:53:48.757Z,1.37
2019-05-22T12:56:19.116Z,1.17
2019-05-22T12:58:48.364Z,1.10
2019-05-22T13:01:18.509Z,1.10
2019-05-22T13:03:49.299Z,1.40
2019-05-22T13:06:18.724Z,2.33
2019-05-22T13:08:48.224Z,1.53
2019-05-22T13:11:17.795Z,1.40
2019-05-22T13:13:47.669Z,1.80
2019-05-22T13:16:17.202Z,1.70
2019-05-22T13:18:48.702Z,1.90
2019-05-22T13:21:20.686Z,1.40
2019-05-22T13:23:51.433Z,1.30
2019-05-22T13:26:23.233Z,1.60
2019-05-22T13:28:54.806Z,1.50
2019-05-22T13:31:25.018Z,2.00
2019-05-22T13:33:54.951Z,1.57
2019-05-22T13:36:25.253Z,1.50
2019-05-22T13:38:55.054Z,1.50
2019-05-22T13:41:24.300Z,1.30
2019-05-22T13:43:54.954Z,1.30
2019-05-22T13:46:24.238Z,1.40
2019-05-22T13:48:53.820Z,1.30
2019-05-22T13:51:23.803Z,0.97
2019-05-22T13:53:53.692Z,1.00
2019-05-22T13:56:25.625Z,1.10
2019-05-22T13:58:54.211Z,1.20
2019-05-22T14:01:23.502Z,1.20
2019-05-22T14:04:03.932Z,1.60
2019-05-22T14:06:34.443Z,1.07
2019-05-22T14:09:03.910Z,0.87
2019-05-22T14:11:33.225Z,1.00
2019-05-22T14:14:02.741Z,1.00
2019-05-22T14:16:47.650Z,1.10
2019-05-22T14:19:07.196Z,1.07
2019-05-22T14:21:37.107Z,1.10
2019-05-22T14:24:06.706Z,1.53
2019-05-22T14:26:36.446Z,1.37
2019-05-22T14:29:06.793Z,1.37
2019-05-22T14:31:36.649Z,1.50
2019-05-22T14:34:07.387Z,1.37
2019-05-22T14:36:37.518Z,1.33
2019-05-22T14:39:10.280Z,1.43
2019-05-22T14:41:39.672Z,1.60
2019-05-22T14:44:08.873Z,1.87
2019-05-22T14:46:38.118Z,1.93
2019-05-22T14:49:07.723Z,1.83
2019-05-22T14:51:37.358Z,1.90
2019-05-22T14:54:07.995Z,1.80
2019-05-22T14:56:37.289Z,1.67
2019-05-22T14:59:07.740Z,1.60
2019-05-22T15:01:37.986Z,1.70
2019-05-22T15:04:07.691Z,1.93
2019-05-22T15:06:37.113Z,1.80
2019-05-22T15:09:08.698Z,1.97
2019-05-22T15:11:38.918Z,1.83
2019-05-22T15:14:08.290Z,2.00
2019-05-22T15:16:37.629Z,1.70
2019-05-22T15:19:06.994Z,1.60
2019-05-22T15:21:37.032Z,1.70
2019-05-22T15:24:08.259Z,1.90
2019-05-22T15:26:37.678Z,1.63
2019-05-22T15:29:08.485Z,1.83
2019-05-22T15:31:37.788Z,2.17
2019-05-22T15:34:07.900Z,2.20
2019-05-22T15:36:38.444Z,1.93
2019-05-22T15:39:08.837Z,1.93
2019-05-22T15:41:39.275Z,1.90
2019-05-22T15:44:09.995Z,2.10
2019-05-22T15:46:40.536Z,2.13
2019-05-22T15:49:12.597Z,1.87
2019-05-22T15:51:44.766Z,2.10
2019-05-22T15:54:15.967Z,1.87
2019-05-22T15:56:45.855Z,1.80
2019-05-22T15:59:17.497Z,2.43
2019-05-22T16:01:48.871Z,1.90
2019-05-22T16:04:20.292Z,1.80
2019-05-22T16:06:51.394Z,2.07
2019-05-22T16:09:23.606Z,1.80
2019-05-22T16:11:55.320Z,2.07
2019-05-22T16:14:28.357Z,1.90
2019-05-22T16:16:58.751Z,1.90
2019-05-22T16:19:34.496Z,1.90
2019-05-22T16:22:08.092Z,2.10
2019-05-22T16:24:39.189Z,2.13
2019-05-22T16:27:10.014Z,2.13
2019-05-22T16:29:41.208Z,3.17
2019-05-22T16:32:14.418Z,2.63
2019-05-22T16:34:45.018Z,2.20
2019-05-22T16:37:15.788Z,2.03
2019-05-22T16:39:49.839Z,1.70
2019-05-22T16:42:17.186Z,1.50
2019-05-22T16:44:46.539Z,1.70
2019-05-22T16:47:18.091Z,1.40
2019-05-22T16:49:48.068Z,1.40
2019-05-22T16:52:20.229Z,1.70
2019-05-22T16:54:51.164Z,1.60
2019-05-22T16:57:21.482Z,1.70
2019-05-22T16:59:51.943Z,1.60
2019-05-22T17:02:25.879Z,1.57
2019-05-22T17:04:55.815Z,2.43
2019-05-22T17:07:28.115Z,1.70
2019-05-22T17:09:56.441Z,2.03
2019-05-22T17:12:27.347Z,1.97
2019-05-22T17:14:57.205Z,1.67
2019-05-22T17:17:29.433Z,3.63
2019-05-22T17:20:04.901Z,2.27
2019-05-22T17:22:34.074Z,1.60
2019-05-22T17:25:04.540Z,2.50
2019-05-22T17:27:33.793Z,1.90
2019-05-22T17:30:03.353Z,3.63
2019-05-22T17:32:33.589Z,1.90
2019-05-22T17:35:05.794Z,1.93
2019-05-22T17:37:36.506Z,1.80
2019-05-22T17:40:08.649Z,1.73
2019-05-22T17:42:39.253Z,1.50
2019-05-22T17:45:11.530Z,1.60
2019-05-22T17:47:43.497Z,1.53
2019-05-22T17:50:25.907Z,1.53
2019-05-22T17:52:49.641Z,1.30
2019-05-22T17:55:22.468Z,1.40
2019-05-22T17:57:54.567Z,1.37
2019-05-22T18:00:30.564Z,1.27
2019-05-22T18:03:02.248Z,1.30
2019-05-22T18:05:33.339Z,1.30
2019-05-22T18:08:03.588Z,1.40
2019-05-22T18:10:40.283Z,1.37
2019-05-22T18:13:09.918Z,1.50
2019-05-22T18:15:39.537Z,1.80
2019-05-22T18:18:10.575Z,1.67
2019-05-22T18:20:43.771Z,1.50
2019-05-22T18:23:11.118Z,1.90
2019-05-22T18:25:40.317Z,1.90
2019-05-22T18:28:12.064Z,1.40
2019-05-22T18:30:42.778Z,1.50
2019-05-22T18:33:13.324Z,1.70
2019-05-22T18:35:42.748Z,1.67
2019-05-22T18:38:13.863Z,1.50
2019-05-22T18:40:43.120Z,1.80
2019-05-22T18:43:13.147Z,1.77
2019-05-22T18:45:42.781Z,1.77
2019-05-22T18:48:13.513Z,2.13
2019-05-22T18:50:43.551Z,1.53
2019-05-22T18:53:13.167Z,1.63
2019-05-22T18:55:44.347Z,1.80
2019-05-22T18:58:13.549Z,2.20
2019-05-22T19:00:43.923Z,1.80
2019-05-22T19:03:13.571Z,1.43
2019-05-22T19:05:43.826Z,1.80
2019-05-22T19:08:13.443Z,2.00
2019-05-22T19:10:42.871Z,1.80
2019-05-22T19:13:14.594Z,2.07
2019-05-22T19:15:44.164Z,1.83
2019-05-22T19:18:13.519Z,1.90
2019-05-22T19:20:43.044Z,2.17
2019-05-22T19:23:12.943Z,2.40
2019-05-22T19:25:42.373Z,2.10
2019-05-22T19:28:11.631Z,2.50
2019-05-22T19:30:42.817Z,2.40
2019-05-22T19:33:14.944Z,2.80
2019-05-22T19:35:43.911Z,2.40
2019-05-22T19:38:13.318Z,2.17
2019-05-22T19:40:43.202Z,2.40
2019-05-22T19:43:12.722Z,2.87
2019-05-22T19:45:42.876Z,2.37
2019-05-22T19:48:12.452Z,2.27
2019-05-22T19:50:43.006Z,2.30
2019-05-22T19:53:18.735Z,2.27
2019-05-22T19:55:45.409Z,2.37
2019-05-22T19:58:15.120Z,2.17
2019-05-22T20:00:45.068Z,2.33
2019-05-22T20:03:14.410Z,2.13
2019-05-22T20:05:44.520Z,2.43
2019-05-22T20:08:13.993Z,2.33
2019-05-22T20:10:44.398Z,2.07
2019-05-22T20:13:13.706Z,2.00
2019-05-22T20:15:43.898Z,2.73
2019-05-22T20:18:13.641Z,2.70
2019-05-22T20:20:43.190Z,2.90
2019-05-22T20:23:13.201Z,2.83
2019-05-22T20:25:42.774Z,3.30
2019-05-22T20:28:12.497Z,3.77
2019-05-22T20:30:41.782Z,3.20
2019-05-22T20:33:12.433Z,3.10
2019-05-22T20:35:42.053Z,2.70
2019-05-22T20:38:11.856Z,2.83
2019-05-22T20:40:41.893Z,3.40
2019-05-22T20:43:12.327Z,3.43
2019-05-22T20:45:45.061Z,3.77
2019-05-22T20:48:30.054Z,3.47
2019-05-22T20:51:01.769Z,3.90
2019-05-22T20:53:33.316Z,3.60
2019-05-22T20:56:03.388Z,4.10
2019-05-22T20:58:33.991Z,4.30
2019-05-22T21:01:03.338Z,3.83
2019-05-22T21:03:33.485Z,4.77
2019-05-22T21:06:06.825Z,4.80
2019-05-22T21:08:36.976Z,5.20
2019-05-22T21:11:08.636Z,5.20
2019-05-22T21:13:38.289Z,5.27
2019-05-22T21:16:09.801Z,5.40
2019-05-22T21:18:43.637Z,5.10
2019-05-22T21:21:14.470Z,5.60
2019-05-22T21:23:44.058Z,5.30
2019-05-22T21:26:15.251Z,6.23
2019-05-22T21:28:45.022Z,6.10
2019-05-22T21:31:16.668Z,6.20
2019-05-22T21:33:46.729Z,5.57
2019-05-22T21:36:18.606Z,6.27
2019-05-22T21:38:48.192Z,6.23
2019-05-22T21:41:21.282Z,6.67
2019-05-22T21:43:52.257Z,6.67
2019-05-22T21:46:22.362Z,6.07
2019-05-22T21:48:53.661Z,6.30
2019-05-22T21:51:23.467Z,6.50
2019-05-22T21:53:54.472Z,6.97
2019-05-22T21:56:24.360Z,7.00
2019-05-22T21:58:53.953Z,6.97
2019-05-22T22:01:31.441Z,7.40
2019-05-22T22:04:21.610Z,6.83
2019-05-22T22:06:53.838Z,7.03
2019-05-22T22:09:23.825Z,6.43
2019-05-22T22:11:54.402Z,7.03
2019-05-22T22:14:26.120Z,7.47
2019-05-22T22:16:56.299Z,6.90
2019-05-22T22:19:26.137Z,6.87
2019-05-22T22:21:56.029Z,7.00
2019-05-22T22:24:26.300Z,7.33
2019-05-22T22:26:57.177Z,7.43
2019-05-22T22:29:27.293Z,7.47
2019-05-22T22:31:59.040Z,7.00
2019-05-22T22:34:54.127Z,6.53
2019-05-22T22:37:24.819Z,6.70
2019-05-22T22:39:56.526Z,6.93
2019-05-22T22:42:29.305Z,7.33
2019-05-22T22:45:00.192Z,7.00
2019-05-22T22:47:39.492Z,6.90
2019-05-22T22:50:09.700Z,6.63
2019-05-22T22:52:39.918Z,6.80
2019-05-22T22:55:13.414Z,6.60
2019-05-22T22:57:43.228Z,6.50
2019-05-22T23:00:16.578Z,6.57
2019-05-22T23:02:48.361Z,6.97
2019-05-22T23:05:18.711Z,6.70
2019-05-22T23:07:49.310Z,6.50
2019-05-22T23:10:21.238Z,6.13
2019-05-22T23:12:54.218Z,6.50
2019-05-22T23:15:26.296Z,5.80
2019-05-22T23:17:56.264Z,5.80
2019-05-22T23:20:23.828Z,6.23
2019-05-22T23:22:52.103Z,6.53
2019-05-22T23:25:23.205Z,6.57
2019-05-22T23:27:53.261Z,6.40
2019-05-22T23:30:23.912Z,6.80
2019-05-22T23:32:54.715Z,6.23
2019-05-22T23:35:25.571Z,6.30
2019-05-22T23:37:57.091Z,5.97
2019-05-22T23:40:30.566Z,6.10
2019-05-22T23:43:01.889Z,5.73
2019-05-22T23:45:32.153Z,6.53
2019-05-22T23:48:12.231Z,6.33
2019-05-22T23:50:41.774Z,7.10
2019-05-22T23:53:12.258Z,6.77
2019-05-22T23:55:43.003Z,6.57
2019-05-22T23:58:14.036Z,6.60
